sensor_id;sensor_type;location;lat;lon;timestamp;pressure;altitude;pressure_sealevel;temperature;humidity
38852;BME280;24605;50.092;9.182;2023-09-07T00:01:48;156919.63;;;19.24;68.43
38852;BME280;24605;50.092;9.182;2023-09-07T00:04:17;156893.41;;;19.14;68.95
38852;BME280;24605;50.092;9.182;2023-09-07T00:06:44;156871.09;;;19.05;69.17
38852;BME280;24605;50.092;9.182;2023-09-07T00:09:10;156873.72;;;19.06;69.70
38852;BME280;24605;50.092;9.182;2023-09-07T00:11:39;156884.22;;;19.10;69.79
38852;BME280;24605;50.092;9.182;2023-09-07T00:14:06;156838.28;;;18.92;70.85
38852;BME280;24605;50.092;9.182;2023-09-07T00:16:33;156784.53;;;18.71;71.57
38852;BME280;24605;50.092;9.182;2023-09-07T00:19:00;156829.09;;;18.88;71.57
38852;BME280;24605;50.092;9.182;2023-09-07T00:21:27;156850.13;;;18.97;71.17
38852;BME280;24605;50.092;9.182;2023-09-07T00:23:54;156842.28;;;18.93;70.92
38852;BME280;24605;50.092;9.182;2023-09-07T00:26:21;156833.06;;;18.90;71.27
38852;BME280;24605;50.092;9.182;2023-09-07T00:28:49;156843.56;;;18.94;72.05
38852;BME280;24605;50.092;9.182;2023-09-07T00:31:15;156816.03;;;18.83;71.85
38852;BME280;24605;50.092;9.182;2023-09-07T00:33:42;156787.16;;;18.72;72.01
38852;BME280;24605;50.092;9.182;2023-09-07T00:36:08;156816.03;;;18.83;71.41
38852;BME280;24605;50.092;9.182;2023-09-07T00:38:35;156804.22;;;18.78;71.84
38852;BME280;24605;50.092;9.182;2023-09-07T00:41:01;156779.34;;;18.69;72.25
38852;BME280;24605;50.092;9.182;2023-09-07T00:43:27;156784.53;;;18.71;72.62
38852;BME280;24605;50.092;9.182;2023-09-07T00:45:55;156781.91;;;18.70;73.57
38852;BME280;24605;50.092;9.182;2023-09-07T00:48:22;156763.56;;;18.62;73.77
38852;BME280;24605;50.092;9.182;2023-09-07T00:50:49;156784.53;;;18.71;73.33
38852;BME280;24605;50.092;9.182;2023-09-07T00:53:16;156776.72;;;18.68;73.41
38852;BME280;24605;50.092;9.182;2023-09-07T00:55:44;156795.03;;;18.75;73.35
38852;BME280;24605;50.092;9.182;2023-09-07T00:58:11;156826.47;;;18.87;73.03
38852;BME280;24605;50.092;9.182;2023-09-07T01:00:39;156813.38;;;18.82;73.33
38852;BME280;24605;50.092;9.182;2023-09-07T01:03:07;156848.84;;;18.96;72.70
38852;BME280;24605;50.092;9.182;2023-09-07T01:05:41;156834.34;;;18.90;72.74
38852;BME280;24605;50.092;9.182;2023-09-07T01:08:12;156834.34;;;18.90;73.38
38852;BME280;24605;50.092;9.182;2023-09-07T01:10:41;156814.69;;;18.83;73.45
38852;BME280;24605;50.092;9.182;2023-09-07T01:13:07;156813.38;;;18.82;73.59
38852;BME280;24605;50.092;9.182;2023-09-07T01:15:34;156802.88;;;18.78;73.89
38852;BME280;24605;50.092;9.182;2023-09-07T01:18:01;156788.50;;;18.72;74.47
38852;BME280;24605;50.092;9.182;2023-09-07T01:20:31;156753.13;;;18.58;75.19
38852;BME280;24605;50.092;9.182;2023-09-07T01:23:00;156725.56;;;18.47;75.91
38852;BME280;24605;50.092;9.182;2023-09-07T01:25:26;156759.66;;;18.61;75.46
38852;BME280;24605;50.092;9.182;2023-09-07T01:27:54;156755.75;;;18.59;75.32
38852;BME280;24605;50.092;9.182;2023-09-07T01:30:21;156764.91;;;18.63;75.59
38852;BME280;24605;50.092;9.182;2023-09-07T01:32:48;156739.97;;;18.53;76.03
38852;BME280;24605;50.092;9.182;2023-09-07T01:35:16;156753.13;;;18.58;75.95
38852;BME280;24605;50.092;9.182;2023-09-07T01:37:43;156724.28;;;18.47;76.33
38852;BME280;24605;50.092;9.182;2023-09-07T01:40:11;156725.56;;;18.47;76.75
38852;BME280;24605;50.092;9.182;2023-09-07T01:42:37;156734.78;;;18.51;76.59
38852;BME280;24605;50.092;9.182;2023-09-07T01:45:04;156695.44;;;18.36;77.48
38852;BME280;24605;50.092;9.182;2023-09-07T01:47:31;156696.75;;;18.36;77.60
38852;BME280;24605;50.092;9.182;2023-09-07T01:49:58;156684.97;;;18.31;77.90
38852;BME280;24605;50.092;9.182;2023-09-07T01:52:24;156690.19;;;18.33;77.98
38852;BME280;24605;50.092;9.182;2023-09-07T01:54:50;156677.09;;;18.28;78.11
38852;BME280;24605;50.092;9.182;2023-09-07T01:57:18;156649.59;;;18.17;78.94
38852;BME280;24605;50.092;9.182;2023-09-07T01:59:45;156639.09;;;18.13;79.61
38852;BME280;24605;50.092;9.182;2023-09-07T02:02:13;156593.22;;;17.95;79.73
38852;BME280;24605;50.092;9.182;2023-09-07T02:04:39;156619.47;;;18.06;79.72
38852;BME280;24605;50.092;9.182;2023-09-07T02:07:08;156611.59;;;18.03;79.78
38852;BME280;24605;50.092;9.182;2023-09-07T02:09:35;156607.69;;;18.01;80.14
38852;BME280;24605;50.092;9.182;2023-09-07T02:12:01;156552.59;;;17.79;80.92
38852;BME280;24605;50.092;9.182;2023-09-07T02:14:30;156590.59;;;17.94;81.02
38852;BME280;24605;50.092;9.182;2023-09-07T02:16:57;156578.78;;;17.90;81.48
38852;BME280;24605;50.092;9.182;2023-09-07T02:19:23;156556.50;;;17.81;81.52
38852;BME280;24605;50.092;9.182;2023-09-07T02:21:50;156585.34;;;17.92;81.38
38852;BME280;24605;50.092;9.182;2023-09-07T02:24:17;156589.28;;;17.94;81.31
38852;BME280;24605;50.092;9.182;2023-09-07T02:26:44;156587.97;;;17.93;81.25
38852;BME280;24605;50.092;9.182;2023-09-07T02:29:11;156595.88;;;17.96;81.27
38852;BME280;24605;50.092;9.182;2023-09-07T02:31:39;156593.22;;;17.95;81.63
38852;BME280;24605;50.092;9.182;2023-09-07T02:34:05;156525.09;;;17.68;82.12
38852;BME280;24605;50.092;9.182;2023-09-07T02:36:33;156531.63;;;17.71;82.76
38852;BME280;24605;50.092;9.182;2023-09-07T02:38:59;156488.44;;;17.54;83.60
38852;BME280;24605;50.092;9.182;2023-09-07T02:41:26;156487.09;;;17.53;83.55
38852;BME280;24605;50.092;9.182;2023-09-07T02:43:53;156454.38;;;17.41;84.79
38852;BME280;24605;50.092;9.182;2023-09-07T02:46:19;156450.44;;;17.39;85.01
38852;BME280;24605;50.092;9.182;2023-09-07T02:48:47;156462.25;;;17.44;85.02
38852;BME280;24605;50.092;9.182;2023-09-07T02:51:13;156455.66;;;17.41;85.51
38852;BME280;24605;50.092;9.182;2023-09-07T02:53:40;156438.66;;;17.34;85.82
38852;BME280;24605;50.092;9.182;2023-09-07T02:56:06;156447.81;;;17.38;85.97
38852;BME280;24605;50.092;9.182;2023-09-07T02:58:33;156442.56;;;17.36;86.31
38852;BME280;24605;50.092;9.182;2023-09-07T03:00:59;156429.50;;;17.31;86.85
38852;BME280;24605;50.092;9.182;2023-09-07T03:03:26;156439.94;;;17.35;86.75
38852;BME280;24605;50.092;9.182;2023-09-07T03:05:53;156438.66;;;17.34;86.94
38852;BME280;24605;50.092;9.182;2023-09-07T03:08:20;156415.09;;;17.25;87.53
38852;BME280;24605;50.092;9.182;2023-09-07T03:10:46;156415.09;;;17.25;87.48
38852;BME280;24605;50.092;9.182;2023-09-07T03:13:13;156403.31;;;17.20;87.98
38852;BME280;24605;50.092;9.182;2023-09-07T03:15:39;156430.78;;;17.31;87.67
38852;BME280;24605;50.092;9.182;2023-09-07T03:18:06;156413.75;;;17.25;87.58
38852;BME280;24605;50.092;9.182;2023-09-07T03:20:33;156436.03;;;17.33;87.31
38852;BME280;24605;50.092;9.182;2023-09-07T03:23:01;156447.81;;;17.38;87.18
38852;BME280;24605;50.092;9.182;2023-09-07T03:25:27;156428.16;;;17.30;87.44
38852;BME280;24605;50.092;9.182;2023-09-07T03:27:54;156422.91;;;17.28;87.85
38852;BME280;24605;50.092;9.182;2023-09-07T03:30:20;156428.16;;;17.30;87.75
38852;BME280;24605;50.092;9.182;2023-09-07T03:32:46;156415.09;;;17.25;88.09
38852;BME280;24605;50.092;9.182;2023-09-07T03:35:13;156408.56;;;17.22;88.52
38852;BME280;24605;50.092;9.182;2023-09-07T03:37:42;156413.75;;;17.25;88.36
38852;BME280;24605;50.092;9.182;2023-09-07T03:40:10;156344.38;;;16.97;88.25
38852;BME280;24605;50.092;9.182;2023-09-07T03:42:37;156399.38;;;17.19;88.75
38852;BME280;24605;50.092;9.182;2023-09-07T03:45:05;156373.19;;;17.09;88.84
38852;BME280;24605;50.092;9.182;2023-09-07T03:47:32;156356.16;;;17.02;89.70
38852;BME280;24605;50.092;9.182;2023-09-07T03:49:58;156366.59;;;17.06;89.27
38852;BME280;24605;50.092;9.182;2023-09-07T03:52:26;156312.91;;;16.85;89.58
38852;BME280;24605;50.092;9.182;2023-09-07T03:54:53;156358.78;;;17.03;89.49
38852;BME280;24605;50.092;9.182;2023-09-07T03:57:22;156349.63;;;16.99;89.66
38852;BME280;24605;50.092;9.182;2023-09-07T04:02:16;156374.47;;;17.09;90.12
38852;BME280;24605;50.092;9.182;2023-09-07T04:04:47;156364.03;;;17.05;89.88
38852;BME280;24605;50.092;9.182;2023-09-07T04:07:14;156354.81;;;17.01;90.21
38852;BME280;24605;50.092;9.182;2023-09-07T04:09:40;156344.38;;;16.97;90.99
38852;BME280;24605;50.092;9.182;2023-09-07T04:12:07;156369.25;;;17.07;90.41
38852;BME280;24605;50.092;9.182;2023-09-07T04:14:35;156370.56;;;17.07;90.17
38852;BME280;24605;50.092;9.182;2023-09-07T04:17:02;156356.16;;;17.02;90.81
38852;BME280;24605;50.092;9.182;2023-09-07T04:19:28;156377.13;;;17.10;90.31
38852;BME280;24605;50.092;9.182;2023-09-07T04:21:56;156350.91;;;17.00;90.85
38852;BME280;24605;50.092;9.182;2023-09-07T04:24:22;156344.38;;;16.97;91.40
38852;BME280;24605;50.092;9.182;2023-09-07T04:26:49;156348.28;;;16.99;90.75
38852;BME280;24605;50.092;9.182;2023-09-07T04:29:16;156336.50;;;16.94;90.92
38852;BME280;24605;50.092;9.182;2023-09-07T04:31:43;156358.78;;;17.03;90.93
38852;BME280;24605;50.092;9.182;2023-09-07T04:34:10;156345.66;;;16.98;91.03
38852;BME280;24605;50.092;9.182;2023-09-07T04:36:36;156337.84;;;16.95;91.16
38852;BME280;24605;50.092;9.182;2023-09-07T04:39:03;156362.69;;;17.04;91.09
38852;BME280;24605;50.092;9.182;2023-09-07T04:41:30;156307.69;;;16.83;91.34
38852;BME280;24605;50.092;9.182;2023-09-07T04:43:56;156333.88;;;16.93;91.88
38852;BME280;24605;50.092;9.182;2023-09-07T04:46:23;156345.66;;;16.98;91.52
38852;BME280;24605;50.092;9.182;2023-09-07T04:48:51;156333.88;;;16.93;91.71
38852;BME280;24605;50.092;9.182;2023-09-07T04:51:17;156349.63;;;16.99;91.66
38852;BME280;24605;50.092;9.182;2023-09-07T04:53:44;156276.25;;;16.70;92.18
38852;BME280;24605;50.092;9.182;2023-09-07T04:56:13;156320.75;;;16.88;92.39
38852;BME280;24605;50.092;9.182;2023-09-07T04:58:39;156295.91;;;16.78;92.93
38852;BME280;24605;50.092;9.182;2023-09-07T05:01:07;156285.41;;;16.74;93.50
38852;BME280;24605;50.092;9.182;2023-09-07T05:03:35;156288.03;;;16.75;93.66
38852;BME280;24605;50.092;9.182;2023-09-07T05:06:04;156276.25;;;16.70;93.70
38852;BME280;24605;50.092;9.182;2023-09-07T05:08:31;156289.31;;;16.75;93.39
38852;BME280;24605;50.092;9.182;2023-09-07T05:10:59;156315.50;;;16.86;92.89
38852;BME280;24605;50.092;9.182;2023-09-07T05:13:27;156307.69;;;16.83;92.85
38852;BME280;24605;50.092;9.182;2023-09-07T05:15:54;156331.25;;;16.92;92.40
38852;BME280;24605;50.092;9.182;2023-09-07T05:18:22;156326.00;;;16.90;92.44
38852;BME280;24605;50.092;9.182;2023-09-07T05:20:49;156316.84;;;16.86;92.09
38852;BME280;24605;50.092;9.182;2023-09-07T05:23:18;156311.59;;;16.84;92.54
38852;BME280;24605;50.092;9.182;2023-09-07T05:25:45;156336.50;;;16.94;92.06
38852;BME280;24605;50.092;9.182;2023-09-07T05:28:12;156347.00;;;16.98;92.08
38852;BME280;24605;50.092;9.182;2023-09-07T05:30:39;156352.25;;;17.00;92.17
38852;BME280;24605;50.092;9.182;2023-09-07T05:33:06;156344.38;;;16.97;91.73
38852;BME280;24605;50.092;9.182;2023-09-07T05:35:33;156349.63;;;16.99;92.33
38852;BME280;24605;50.092;9.182;2023-09-07T05:38:00;156357.44;;;17.02;91.91
38852;BME280;24605;50.092;9.182;2023-09-07T05:40:28;156388.91;;;17.15;91.41
38852;BME280;24605;50.092;9.182;2023-09-07T05:42:54;156367.94;;;17.06;91.64
38852;BME280;24605;50.092;9.182;2023-09-07T05:45:21;156358.78;;;17.03;91.11
38852;BME280;24605;50.092;9.182;2023-09-07T05:47:47;156327.31;;;16.90;91.15
38852;BME280;24605;50.092;9.182;2023-09-07T05:50:14;156282.78;;;16.73;90.67
38852;BME280;24605;50.092;9.182;2023-09-07T05:52:40;156281.50;;;16.72;90.52
38852;BME280;24605;50.092;9.182;2023-09-07T05:55:07;156429.50;;;17.31;89.81
38852;BME280;24605;50.092;9.182;2023-09-07T05:57:35;156387.59;;;17.14;89.98
38852;BME280;24605;50.092;9.182;2023-09-07T06:00:02;156315.50;;;16.86;90.33
38852;BME280;24605;50.092;9.182;2023-09-07T06:02:29;156307.69;;;16.83;90.34
38852;BME280;24605;50.092;9.182;2023-09-07T06:04:56;156390.19;;;17.15;90.38
38852;BME280;24605;50.092;9.182;2023-09-07T06:07:23;156382.34;;;17.12;89.41
38852;BME280;24605;50.092;9.182;2023-09-07T06:09:49;156492.34;;;17.56;89.67
38852;BME280;24605;50.092;9.182;2023-09-07T06:12:16;156525.09;;;17.68;88.87
38852;BME280;24605;50.092;9.182;2023-09-07T06:17:13;156564.38;;;17.84;87.40
38852;BME280;24605;50.092;9.182;2023-09-07T06:19:40;156560.47;;;17.82;87.30
38852;BME280;24605;50.092;9.182;2023-09-07T06:22:06;156632.53;;;18.11;86.57
38852;BME280;24605;50.092;9.182;2023-09-07T06:24:32;156657.41;;;18.21;85.40
38852;BME280;24605;50.092;9.182;2023-09-07T06:26:59;156671.84;;;18.26;85.20
38852;BME280;24605;50.092;9.182;2023-09-07T06:29:25;156694.16;;;18.35;84.56
38852;BME280;24605;50.092;9.182;2023-09-07T06:31:52;156691.50;;;18.34;85.08
38852;BME280;24605;50.092;9.182;2023-09-07T06:34:20;156700.69;;;18.38;84.87
38852;BME280;24605;50.092;9.182;2023-09-07T06:36:46;156732.16;;;18.50;84.75
38852;BME280;24605;50.092;9.182;2023-09-07T06:39:12;156780.63;;;18.69;83.91
38852;BME280;24605;50.092;9.182;2023-09-07T06:41:39;156775.38;;;18.67;83.97
38852;BME280;24605;50.092;9.182;2023-09-07T06:44:05;156798.97;;;18.76;83.52
38852;BME280;24605;50.092;9.182;2023-09-07T06:46:32;156795.03;;;18.75;83.29
38852;BME280;24605;50.092;9.182;2023-09-07T06:48:58;156863.25;;;19.02;82.52
38852;BME280;24605;50.092;9.182;2023-09-07T06:51:26;156872.44;;;19.05;82.20
38852;BME280;24605;50.092;9.182;2023-09-07T06:53:53;156863.25;;;19.02;83.46
38852;BME280;24605;50.092;9.182;2023-09-07T06:56:19;156910.47;;;19.20;82.85
38852;BME280;24605;50.092;9.182;2023-09-07T06:58:46;156951.06;;;19.36;82.25
38852;BME280;24605;50.092;9.182;2023-09-07T07:01:12;157011.41;;;19.60;81.36
38852;BME280;24605;50.092;9.182;2023-09-07T07:03:39;157031.06;;;19.68;80.81
38852;BME280;24605;50.092;9.182;2023-09-07T07:06:05;157059.94;;;19.79;79.82
38852;BME280;24605;50.092;9.182;2023-09-07T07:08:33;157079.66;;;19.87;79.58
38852;BME280;24605;50.092;9.182;2023-09-07T07:10:59;157109.84;;;19.99;78.94
38852;BME280;24605;50.092;9.182;2023-09-07T07:13:26;157137.38;;;20.10;76.85
38852;BME280;24605;50.092;9.182;2023-09-07T07:15:52;157166.25;;;20.21;75.72
38852;BME280;24605;50.092;9.182;2023-09-07T07:18:19;157195.06;;;20.32;74.76
38852;BME280;24605;50.092;9.182;2023-09-07T07:20:45;157243.66;;;20.51;74.75
38852;BME280;24605;50.092;9.182;2023-09-07T07:23:12;157260.72;;;20.58;73.91
38852;BME280;24605;50.092;9.182;2023-09-07T07:25:40;157290.88;;;20.70;74.03
38852;BME280;24605;50.092;9.182;2023-09-07T07:28:06;157262.00;;;20.59;72.93
38852;BME280;24605;50.092;9.182;2023-09-07T07:30:33;157276.44;;;20.64;72.04
38852;BME280;24605;50.092;9.182;2023-09-07T07:33:00;157327.66;;;20.85;72.16
38852;BME280;24605;50.092;9.182;2023-09-07T07:35:28;157350.00;;;20.93;71.41
38852;BME280;24605;50.092;9.182;2023-09-07T07:37:55;157359.19;;;20.97;71.28
38852;BME280;24605;50.092;9.182;2023-09-07T07:40:21;157355.22;;;20.95;71.04
38852;BME280;24605;50.092;9.182;2023-09-07T07:42:51;157393.28;;;21.10;70.62
38852;BME280;24605;50.092;9.182;2023-09-07T07:45:18;157414.28;;;21.19;70.16
38852;BME280;24605;50.092;9.182;2023-09-07T07:47:48;157434.00;;;21.26;69.57
38852;BME280;24605;50.092;9.182;2023-09-07T07:50:15;157461.53;;;21.37;69.84
38852;BME280;24605;50.092;9.182;2023-09-07T07:52:42;157449.72;;;21.33;68.96
38852;BME280;24605;50.092;9.182;2023-09-07T07:55:09;157520.69;;;21.60;68.33
38852;BME280;24605;50.092;9.182;2023-09-07T07:57:36;157519.34;;;21.60;67.29
38852;BME280;24605;50.092;9.182;2023-09-07T08:00:05;157466.81;;;21.39;69.29
38852;BME280;24605;50.092;9.182;2023-09-07T08:02:32;157512.72;;;21.57;69.25
38852;BME280;24605;50.092;9.182;2023-09-07T08:04:58;157565.31;;;21.78;68.32
38852;BME280;24605;50.092;9.182;2023-09-07T08:07:25;157571.88;;;21.81;68.83
38852;BME280;24605;50.092;9.182;2023-09-07T08:09:51;157602.06;;;21.92;67.67
38852;BME280;24605;50.092;9.182;2023-09-07T08:12:18;157616.53;;;21.98;67.39
38852;BME280;24605;50.092;9.182;2023-09-07T08:14:44;157627.06;;;22.02;67.24
38852;BME280;24605;50.092;9.182;2023-09-07T08:17:13;157650.69;;;22.12;66.19
38852;BME280;24605;50.092;9.182;2023-09-07T08:19:39;157655.91;;;22.14;67.26
38852;BME280;24605;50.092;9.182;2023-09-07T08:22:05;157682.19;;;22.24;66.79
38852;BME280;24605;50.092;9.182;2023-09-07T08:24:34;157663.81;;;22.17;64.89
38852;BME280;24605;50.092;9.182;2023-09-07T08:27:00;157688.75;;;22.27;64.49
38852;BME280;24605;50.092;9.182;2023-09-07T08:29:27;157682.19;;;22.24;64.75
38852;BME280;24605;50.092;9.182;2023-09-07T08:31:57;157682.19;;;22.24;65.81
38852;BME280;24605;50.092;9.182;2023-09-07T08:34:26;157686.16;;;22.26;63.06
38852;BME280;24605;50.092;9.182;2023-09-07T08:36:52;157684.81;;;22.25;64.12
38852;BME280;24605;50.092;9.182;2023-09-07T08:39:20;157676.91;;;22.22;64.53
38852;BME280;24605;50.092;9.182;2023-09-07T08:41:47;157716.38;;;22.37;63.47
38852;BME280;24605;50.092;9.182;2023-09-07T08:44:16;157742.69;;;22.48;63.31
38852;BME280;24605;50.092;9.182;2023-09-07T08:46:44;157719.00;;;22.38;63.42
38852;BME280;24605;50.092;9.182;2023-09-07T08:49:11;157745.28;;;22.49;63.92
38852;BME280;24605;50.092;9.182;2023-09-07T08:51:39;157770.25;;;22.59;64.58
38852;BME280;24605;50.092;9.182;2023-09-07T08:54:07;157776.81;;;22.61;62.68
38852;BME280;24605;50.092;9.182;2023-09-07T08:56:35;157743.97;;;22.48;62.31
38852;BME280;24605;50.092;9.182;2023-09-07T08:59:01;157766.28;;;22.57;62.58
38852;BME280;24605;50.092;9.182;2023-09-07T09:01:28;157795.22;;;22.68;62.56
38852;BME280;24605;50.092;9.182;2023-09-07T09:03:57;157745.28;;;22.49;61.48
38852;BME280;24605;50.092;9.182;2023-09-07T09:06:24;157796.56;;;22.69;62.75
38852;BME280;24605;50.092;9.182;2023-09-07T09:08:54;157750.53;;;22.51;61.25
38852;BME280;24605;50.092;9.182;2023-09-07T09:11:22;157810.97;;;22.75;60.53
38852;BME280;24605;50.092;9.182;2023-09-07T09:13:50;157830.69;;;22.82;60.92
38852;BME280;24605;50.092;9.182;2023-09-07T09:16:17;157847.78;;;22.89;61.31
38852;BME280;24605;50.092;9.182;2023-09-07T09:18:48;157871.44;;;22.98;60.16
38852;BME280;24605;50.092;9.182;2023-09-07T09:21:15;157891.13;;;23.06;60.58
38852;BME280;24605;50.092;9.182;2023-09-07T09:23:41;157905.56;;;23.12;60.67
38852;BME280;24605;50.092;9.182;2023-09-07T09:26:09;157930.63;;;23.22;59.74
38852;BME280;24605;50.092;9.182;2023-09-07T09:28:37;157950.31;;;23.29;57.50
38852;BME280;24605;50.092;9.182;2023-09-07T09:31:04;157945.03;;;23.27;59.17
38852;BME280;24605;50.092;9.182;2023-09-07T09:33:31;157952.94;;;23.30;58.04
38852;BME280;24605;50.092;9.182;2023-09-07T09:35:58;157950.31;;;23.29;59.25
38852;BME280;24605;50.092;9.182;2023-09-07T09:38:25;157951.66;;;23.30;59.48
38852;BME280;24605;50.092;9.182;2023-09-07T09:40:52;157922.72;;;23.19;60.32
38852;BME280;24605;50.092;9.182;2023-09-07T09:43:20;157981.88;;;23.42;59.99
38852;BME280;24605;50.092;9.182;2023-09-07T09:45:48;158021.28;;;23.57;57.80
38852;BME280;24605;50.092;9.182;2023-09-07T09:48:16;158023.94;;;23.58;59.07
38852;BME280;24605;50.092;9.182;2023-09-07T09:50:45;158063.34;;;23.74;57.70
38852;BME280;24605;50.092;9.182;2023-09-07T09:53:14;157977.94;;;23.40;56.67
38852;BME280;24605;50.092;9.182;2023-09-07T09:55:44;157984.50;;;23.43;57.21
38852;BME280;24605;50.092;9.182;2023-09-07T09:58:11;158005.53;;;23.51;58.30
38852;BME280;24605;50.092;9.182;2023-09-07T10:00:40;158058.06;;;23.72;57.81
38852;BME280;24605;50.092;9.182;2023-09-07T10:03:10;158052.84;;;23.70;57.87
38852;BME280;24605;50.092;9.182;2023-09-07T10:05:39;158041.03;;;23.65;58.03
38852;BME280;24605;50.092;9.182;2023-09-07T10:08:09;158088.34;;;23.84;56.79
38852;BME280;24605;50.092;9.182;2023-09-07T10:10:36;158083.09;;;23.82;56.88
38852;BME280;24605;50.092;9.182;2023-09-07T10:13:04;158133.09;;;24.01;56.52
38852;BME280;24605;50.092;9.182;2023-09-07T10:15:31;158156.78;;;24.11;57.05
38852;BME280;24605;50.092;9.182;2023-09-07T10:18:08;158162.00;;;24.13;58.18
38852;BME280;24605;50.092;9.182;2023-09-07T10:20:35;158155.44;;;24.10;57.38
38852;BME280;24605;50.092;9.182;2023-09-07T10:23:12;158188.31;;;24.23;56.22
38852;BME280;24605;50.092;9.182;2023-09-07T10:25:39;158089.66;;;23.84;58.35
38852;BME280;24605;50.092;9.182;2023-09-07T10:28:17;158177.81;;;24.19;58.94
38852;BME280;24605;50.092;9.182;2023-09-07T10:30:44;158197.50;;;24.27;56.38
38852;BME280;24605;50.092;9.182;2023-09-07T10:33:20;158223.81;;;24.37;57.37
38852;BME280;24605;50.092;9.182;2023-09-07T10:35:46;158251.41;;;24.48;56.99
38852;BME280;24605;50.092;9.182;2023-09-07T10:38:13;158263.25;;;24.52;57.92
38852;BME280;24605;50.092;9.182;2023-09-07T10:40:41;158268.53;;;24.54;57.57
38852;BME280;24605;50.092;9.182;2023-09-07T10:43:10;158248.78;;;24.47;57.78
38852;BME280;24605;50.092;9.182;2023-09-07T10:45:36;158269.88;;;24.55;57.30
38852;BME280;24605;50.092;9.182;2023-09-07T10:48:03;158312.00;;;24.71;55.67
38852;BME280;24605;50.092;9.182;2023-09-07T10:50:42;158346.19;;;24.85;55.37
38852;BME280;24605;50.092;9.182;2023-09-07T10:53:08;158348.81;;;24.86;55.73
38852;BME280;24605;50.092;9.182;2023-09-07T10:55:36;158330.41;;;24.79;57.03
38852;BME280;24605;50.092;9.182;2023-09-07T10:58:03;158400.09;;;25.06;55.08
38852;BME280;24605;50.092;9.182;2023-09-07T11:00:30;158405.38;;;25.08;55.61
38852;BME280;24605;50.092;9.182;2023-09-07T11:02:56;158408.03;;;25.09;55.61
38852;BME280;24605;50.092;9.182;2023-09-07T11:05:23;158429.06;;;25.17;56.16
38852;BME280;24605;50.092;9.182;2023-09-07T11:07:51;158402.75;;;25.07;56.44
38852;BME280;24605;50.092;9.182;2023-09-07T11:10:17;158338.28;;;24.82;56.38
38852;BME280;24605;50.092;9.182;2023-09-07T11:12:45;158377.75;;;24.97;54.37
38852;BME280;24605;50.092;9.182;2023-09-07T11:15:12;158384.34;;;25.00;55.89
38852;BME280;24605;50.092;9.182;2023-09-07T11:17:39;158429.06;;;25.17;55.04
38852;BME280;24605;50.092;9.182;2023-09-07T11:20:07;158488.34;;;25.41;56.02
38852;BME280;24605;50.092;9.182;2023-09-07T11:22:35;158494.91;;;25.43;53.84
38852;BME280;24605;50.092;9.182;2023-09-07T11:25:05;158544.91;;;25.63;53.57
38852;BME280;24605;50.092;9.182;2023-09-07T11:27:32;158527.78;;;25.56;53.75
38852;BME280;24605;50.092;9.182;2023-09-07T11:29:58;158569.91;;;25.73;54.61
38852;BME280;24605;50.092;9.182;2023-09-07T11:32:33;158538.34;;;25.60;52.65
38852;BME280;24605;50.092;9.182;2023-09-07T11:34:59;158579.09;;;25.76;52.19
38852;BME280;24605;50.092;9.182;2023-09-07T11:37:26;158604.16;;;25.86;54.30
38852;BME280;24605;50.092;9.182;2023-09-07T11:39:53;158613.34;;;25.90;52.05
38852;BME280;24605;50.092;9.182;2023-09-07T11:42:21;158638.34;;;26.00;50.60
38852;BME280;24605;50.092;9.182;2023-09-07T11:44:47;158626.50;;;25.95;51.37
38852;BME280;24605;50.092;9.182;2023-09-07T11:47:14;158606.78;;;25.87;51.99
38852;BME280;24605;50.092;9.182;2023-09-07T11:49:41;158542.28;;;25.62;50.41
38852;BME280;24605;50.092;9.182;2023-09-07T11:52:07;158580.44;;;25.77;51.16
38852;BME280;24605;50.092;9.182;2023-09-07T11:54:34;158647.56;;;26.03;49.74
38852;BME280;24605;50.092;9.182;2023-09-07T11:57:00;158688.41;;;26.19;50.00
38852;BME280;24605;50.092;9.182;2023-09-07T11:59:28;158687.09;;;26.19;48.04
38852;BME280;24605;50.092;9.182;2023-09-07T12:01:55;158683.16;;;26.17;49.31
38852;BME280;24605;50.092;9.182;2023-09-07T12:04:21;158716.06;;;26.30;48.70
38852;BME280;24605;50.092;9.182;2023-09-07T12:06:48;158748.97;;;26.43;49.27
38852;BME280;24605;50.092;9.182;2023-09-07T12:09:14;158809.50;;;26.67;48.06
38852;BME280;24605;50.092;9.182;2023-09-07T12:11:42;158802.94;;;26.64;46.89
38852;BME280;24605;50.092;9.182;2023-09-07T12:14:08;158808.22;;;26.66;47.61
38852;BME280;24605;50.092;9.182;2023-09-07T12:16:36;158781.88;;;26.56;48.28
38852;BME280;24605;50.092;9.182;2023-09-07T12:19:03;158822.72;;;26.72;47.95
38852;BME280;24605;50.092;9.182;2023-09-07T12:21:29;158838.56;;;26.78;47.19
38852;BME280;24605;50.092;9.182;2023-09-07T12:23:56;158831.94;;;26.75;45.82
38852;BME280;24605;50.092;9.182;2023-09-07T12:26:22;158853.03;;;26.84;46.57
38852;BME280;24605;50.092;9.182;2023-09-07T12:28:49;158854.34;;;26.84;46.41
38852;BME280;24605;50.092;9.182;2023-09-07T12:31:15;158885.97;;;26.97;45.55
38852;BME280;24605;50.092;9.182;2023-09-07T12:33:43;158913.59;;;27.08;45.36
38852;BME280;24605;50.092;9.182;2023-09-07T12:36:10;158943.94;;;27.19;44.65
38852;BME280;24605;50.092;9.182;2023-09-07T12:38:37;158941.31;;;27.18;44.70
38852;BME280;24605;50.092;9.182;2023-09-07T12:41:03;159020.34;;;27.49;45.34
38852;BME280;24605;50.092;9.182;2023-09-07T12:43:30;158999.22;;;27.41;44.86
38852;BME280;24605;50.092;9.182;2023-09-07T12:45:57;158934.69;;;27.16;45.07
38852;BME280;24605;50.092;9.182;2023-09-07T12:48:24;159016.41;;;27.48;45.75
38852;BME280;24605;50.092;9.182;2023-09-07T12:50:51;159016.41;;;27.48;45.08
38852;BME280;24605;50.092;9.182;2023-09-07T12:53:18;159073.06;;;27.70;44.20
38852;BME280;24605;50.092;9.182;2023-09-07T12:55:45;159073.06;;;27.70;42.63